Weather History for Sturgis, MI

Change the Weather History Date:

Saturday, September 15, 2012

  Actual Average (KHAI) Record (KHAI)
Temperature  
Mean Temperature 58 °F -  
Max Temperature 71 °F 75 °F 88 °F (1955)
Min Temperature 44 °F 50 °F 35 °F (1953)
Degree Days  
Heating Degree Days 8    
Growing Degree Days 8 (Base 50)    
Moisture  
Dew Point 46 °F    
Average Humidity 68    
Maximum Humidity 100    
Minimum Humidity 35    
Precipitation  
Precipitation 0.00 in - - ()
Sea Level Pressure  
Sea Level Pressure 30.27 in    
Wind  
Wind Speed 0 mph (South)    
Max Wind Speed 7 mph    
Max Gust Speed -    
Visibility 10 miles    
Events      
Averages and records for this station are not official NWS values.
T = Trace of Precipitation, MM = Missing Value Source: NWS Daily Summary

Daily Weather History Graph

Daily Weather History Graph

Search for Another Location

Airport:

Trip Planner

Search our weather history database for the weather conditions in past years. The results will help you decide how hot, cold, wet, or windy it might be!

Date:

Astronomy

Sep. 15, 2012 Rise Set
Actual Time 7:22 AM EDT 7:50 PM EDT
Civil Twilight 6:54 AM EDT 8:18 PM EDT
Nautical Twilight 6:21 AM EDT 8:51 PM EDT
Astronomical Twilight 5:47 AM EDT 9:24 PM EDT
Moon 6:52 AM EDT (9/15) 7:19 PM EDT (9/15)
Length of Visible Light 13h 23m
Length of Day
12h 27m
Waning Crescent, 0% of the Moon is Illuminated
Sep 15
Waning Crescent
Sep 15
New
Sep 22
First Quarter
Sep 29
Full
Oct 8
Last Quarter

Hourly Weather History & Observations

Time (EDT) Temp. Dew Point Humidity Pressure Visibility Wind Dir Wind Speed Gust Speed Precip Events Conditions
12:34 AM 50.0 °F 48.2 °F 94% 30.31 in 10.0 mi Calm Calm - N/A   Clear
12:55 AM 48.2 °F 46.4 °F 93% 30.31 in 10.0 mi Calm Calm - N/A   Clear
1:15 AM 48.2 °F 46.4 °F 93% 30.31 in 10.0 mi Calm Calm - N/A   Clear
1:35 AM 48.2 °F 46.4 °F 93% 30.31 in 10.0 mi Calm Calm - N/A   Clear
1:55 AM 48.2 °F 46.4 °F 93% 30.32 in 10.0 mi Calm Calm - N/A   Clear
2:15 AM 48.2 °F 46.4 °F 93% 30.32 in 10.0 mi Calm Calm - N/A   Clear
2:35 AM 48.2 °F 46.4 °F 93% 30.32 in 10.0 mi Calm Calm - N/A   Clear
2:55 AM 48.2 °F 46.4 °F 93% 30.31 in 10.0 mi Calm Calm - N/A   Clear
3:15 AM 48.2 °F 46.4 °F 93% 30.30 in 10.0 mi NE 3.5 mph - N/A   Clear
3:35 AM 48.2 °F 46.4 °F 93% 30.30 in 10.0 mi Calm Calm - N/A   Clear
3:55 AM 48.2 °F 46.4 °F 93% 30.30 in 10.0 mi Calm Calm - N/A   Clear
4:15 AM 48.2 °F 46.4 °F 93% 30.30 in 10.0 mi Calm Calm - N/A   Clear
4:35 AM 48.2 °F 46.4 °F 93% 30.30 in 10.0 mi Calm Calm - N/A   Clear
5:14 AM 48.2 °F 46.4 °F 93% 30.31 in 10.0 mi Calm Calm - N/A   Clear
5:35 AM 48.2 °F 46.4 °F 93% 30.31 in 10.0 mi Calm Calm - N/A   Clear
5:55 AM 46.4 °F 44.6 °F 93% 30.31 in 10.0 mi Calm Calm - N/A   Clear
6:14 AM 46.4 °F 44.6 °F 93% 30.31 in 10.0 mi Calm Calm - N/A   Clear
6:35 AM 46.4 °F 44.6 °F 93% 30.32 in 10.0 mi Calm Calm - N/A   Clear
6:55 AM 46.4 °F 44.6 °F 93% 30.32 in 2.5 mi Calm Calm - N/A   Clear
7:15 AM 46.4 °F 44.6 °F 93% 30.33 in 10.0 mi Calm Calm - N/A   Clear
7:35 AM 44.6 °F 44.6 °F 100% 30.33 in 10.0 mi Calm Calm - N/A   Clear
7:55 AM 46.4 °F 44.6 °F 93% 30.33 in 10.0 mi Calm Calm - N/A   Clear
8:15 AM 48.2 °F 46.4 °F 93% 30.33 in 10.0 mi Calm Calm - N/A   Clear
8:35 AM 51.8 °F 50.0 °F 94% 30.33 in 10.0 mi Calm Calm - N/A   Clear
8:55 AM 55.4 °F 48.2 °F 77% 30.33 in 10.0 mi Calm Calm - N/A   Clear
9:15 AM 57.2 °F 48.2 °F 72% 30.33 in 10.0 mi Calm Calm - N/A   Clear
9:35 AM 59.0 °F 46.4 °F 63% 30.33 in 10.0 mi East 3.5 mph - N/A   Clear
9:55 AM 60.8 °F 46.4 °F 59% 30.33 in 10.0 mi Calm Calm - N/A   Clear
10:15 AM 62.6 °F 44.6 °F 52% 30.33 in 10.0 mi Calm Calm - N/A   Clear
10:35 AM 64.4 °F 44.6 °F 49% 30.32 in 10.0 mi Calm Calm - N/A   Clear
10:55 AM 64.4 °F 42.8 °F 45% 30.32 in 10.0 mi Calm Calm - N/A   Clear
11:15 AM 66.2 °F 42.8 °F 43% 30.32 in 10.0 mi Calm Calm - N/A   Clear
11:35 AM 66.2 °F 42.8 °F 43% 30.32 in 10.0 mi Calm Calm - N/A   Clear
11:54 AM 66.2 °F 44.6 °F 46% 30.31 in 10.0 mi Calm Calm - N/A   Clear
12:15 PM 68.0 °F 42.8 °F 40% 30.30 in 10.0 mi Calm Calm - N/A   Clear
12:35 PM 68.0 °F 42.8 °F 40% 30.30 in 10.0 mi Calm Calm - N/A   Clear
12:54 PM 69.8 °F 44.6 °F 40% 30.29 in 10.0 mi Calm Calm - N/A   Clear
1:15 PM 69.8 °F 42.8 °F 38% 30.29 in 10.0 mi Calm Calm - N/A   Clear
1:35 PM 69.8 °F 44.6 °F 40% 30.28 in 10.0 mi South 3.5 mph - N/A   Clear
1:54 PM 69.8 °F 44.6 °F 40% 30.27 in 10.0 mi Calm Calm - N/A   Clear
2:15 PM 71.6 °F 44.6 °F 38% 30.26 in 10.0 mi Calm Calm - N/A   Clear
2:54 PM 71.6 °F 44.6 °F 38% 30.24 in 10.0 mi Calm Calm - N/A   Clear
3:15 PM 71.6 °F 44.6 °F 38% 30.23 in 10.0 mi SW 3.5 mph - N/A   Clear
3:34 PM 69.8 °F 44.6 °F 40% 30.23 in 10.0 mi Calm Calm - N/A   Clear
3:55 PM 71.6 °F 46.4 °F 41% 30.23 in 10.0 mi SSW 3.5 mph - N/A   Clear
4:15 PM 71.6 °F 44.6 °F 38% 30.22 in 10.0 mi South 5.8 mph - N/A   Clear
4:34 PM 71.6 °F 44.6 °F 38% 30.22 in 10.0 mi WSW 6.9 mph - N/A   Clear
4:55 PM 71.6 °F 44.6 °F 38% 30.21 in 10.0 mi Calm Calm - N/A   Clear
5:15 PM 71.6 °F 44.6 °F 38% 30.20 in 10.0 mi Calm Calm - N/A   Clear
5:34 PM 71.6 °F 44.6 °F 38% 30.20 in 10.0 mi Calm Calm - N/A   Clear
5:55 PM 71.6 °F 42.8 °F 35% 30.20 in 10.0 mi Calm Calm - N/A   Clear
6:13 PM 71.6 °F 44.6 °F 38% 30.20 in 10.0 mi Calm Calm - N/A   Clear
6:35 PM 71.6 °F 44.6 °F 38% 30.19 in 10.0 mi Calm Calm - N/A   Clear
6:55 PM 69.8 °F 46.4 °F 43% 30.19 in 10.0 mi Calm Calm - N/A   Clear
7:15 PM 69.8 °F 48.2 °F 46% 30.18 in 10.0 mi South 1.2 mph - N/A   Clear
7:35 PM 66.2 °F 48.2 °F 52% 30.18 in 10.0 mi South 2.3 mph - N/A   Clear
7:55 PM 62.6 °F 51.8 °F 68% 30.18 in 10.0 mi Calm Calm - N/A   Clear
8:15 PM 62.6 °F 48.2 °F 59% 30.18 in 10.0 mi Calm Calm - N/A   Clear
8:35 PM 57.2 °F 53.6 °F 88% 30.18 in 10.0 mi Calm Calm - N/A   Clear
8:55 PM 57.2 °F 51.8 °F 82% 30.18 in 10.0 mi Calm Calm - N/A   Clear
9:35 PM 55.4 °F 51.8 °F 88% 30.18 in 10.0 mi Calm Calm - N/A   Clear
9:55 PM 55.4 °F 51.8 °F 88% 30.17 in 10.0 mi Calm Calm - N/A   Clear
10:15 PM 55.4 °F 50.0 °F 82% 30.17 in 10.0 mi Calm Calm - N/A   Clear
10:35 PM 55.4 °F 50.0 °F 82% 30.18 in 10.0 mi Calm Calm - N/A   Clear
10:55 PM 55.4 °F 48.2 °F 77% 30.17 in 10.0 mi Calm Calm - N/A   Clear
11:15 PM 53.6 °F 48.2 °F 82% 30.17 in 10.0 mi Calm Calm - N/A   Clear
11:55 PM 55.4 °F 48.2 °F 77% 30.17 in 10.0 mi Calm Calm - N/A   Clear